sensor_id;sensor_type;location;lat;lon;timestamp;P1;durP1;ratioP1;P2;durP2;ratioP2
36597;SDS011;22607;49.550;11.940;2024-02-14T00:00:53;11.27;;;4.63;;
36597;SDS011;22607;49.550;11.940;2024-02-14T00:03:23;11.00;;;4.20;;
36597;SDS011;22607;49.550;11.940;2024-02-14T00:05:50;12.88;;;4.82;;
36597;SDS011;22607;49.550;11.940;2024-02-14T00:08:19;11.43;;;4.00;;
36597;SDS011;22607;49.550;11.940;2024-02-14T00:10:48;10.82;;;3.80;;
36597;SDS011;22607;49.550;11.940;2024-02-14T00:13:15;9.65;;;3.70;;
36597;SDS011;22607;49.550;11.940;2024-02-14T00:15:44;10.70;;;3.67;;
36597;SDS011;22607;49.550;11.940;2024-02-14T00:18:13;10.70;;;3.80;;
36597;SDS011;22607;49.550;11.940;2024-02-14T00:20:42;12.43;;;4.15;;
36597;SDS011;22607;49.550;11.940;2024-02-14T00:23:09;11.35;;;3.63;;
36597;SDS011;22607;49.550;11.940;2024-02-14T00:25:35;10.43;;;4.15;;
36597;SDS011;22607;49.550;11.940;2024-02-14T00:28:02;10.63;;;4.75;;
36597;SDS011;22607;49.550;11.940;2024-02-14T00:30:30;11.95;;;4.72;;
36597;SDS011;22607;49.550;11.940;2024-02-14T00:32:56;13.57;;;5.35;;
36597;SDS011;22607;49.550;11.940;2024-02-14T00:35:24;14.38;;;5.32;;
36597;SDS011;22607;49.550;11.940;2024-02-14T00:37:51;12.13;;;4.78;;
36597;SDS011;22607;49.550;11.940;2024-02-14T00:40:18;12.70;;;5.28;;
36597;SDS011;22607;49.550;11.940;2024-02-14T00:42:45;14.25;;;6.32;;
36597;SDS011;22607;49.550;11.940;2024-02-14T00:45:12;12.38;;;5.88;;
36597;SDS011;22607;49.550;11.940;2024-02-14T00:47:39;13.27;;;5.82;;
36597;SDS011;22607;49.550;11.940;2024-02-14T00:50:06;12.77;;;5.28;;
36597;SDS011;22607;49.550;11.940;2024-02-14T00:52:33;12.25;;;5.22;;
36597;SDS011;22607;49.550;11.940;2024-02-14T00:55:01;11.48;;;4.57;;
36597;SDS011;22607;49.550;11.940;2024-02-14T00:57:30;11.52;;;4.88;;
36597;SDS011;22607;49.550;11.940;2024-02-14T00:59:59;14.30;;;6.50;;
36597;SDS011;22607;49.550;11.940;2024-02-14T01:02:26;16.38;;;6.00;;
36597;SDS011;22607;49.550;11.940;2024-02-14T01:04:54;14.50;;;5.70;;
36597;SDS011;22607;49.550;11.940;2024-02-14T01:07:20;13.30;;;5.50;;
36597;SDS011;22607;49.550;11.940;2024-02-14T01:09:47;11.70;;;5.30;;
36597;SDS011;22607;49.550;11.940;2024-02-14T01:12:14;12.70;;;5.85;;
36597;SDS011;22607;49.550;11.940;2024-02-14T01:14:41;12.85;;;5.18;;
36597;SDS011;22607;49.550;11.940;2024-02-14T01:17:08;11.95;;;5.18;;
36597;SDS011;22607;49.550;11.940;2024-02-14T01:19:37;13.65;;;5.95;;
36597;SDS011;22607;49.550;11.940;2024-02-14T01:22:03;15.40;;;6.47;;
36597;SDS011;22607;49.550;11.940;2024-02-14T01:24:30;11.88;;;5.97;;
36597;SDS011;22607;49.550;11.940;2024-02-14T01:26:57;15.48;;;7.47;;
36597;SDS011;22607;49.550;11.940;2024-02-14T01:29:24;12.38;;;4.97;;
36597;SDS011;22607;49.550;11.940;2024-02-14T01:31:51;12.27;;;5.43;;
36597;SDS011;22607;49.550;11.940;2024-02-14T01:34:17;16.23;;;5.70;;
36597;SDS011;22607;49.550;11.940;2024-02-14T01:36:45;11.32;;;4.65;;
36597;SDS011;22607;49.550;11.940;2024-02-14T01:39:12;11.48;;;4.75;;
36597;SDS011;22607;49.550;11.940;2024-02-14T01:41:43;11.20;;;4.85;;
36597;SDS011;22607;49.550;11.940;2024-02-14T01:44:12;14.10;;;5.70;;
36597;SDS011;22607;49.550;11.940;2024-02-14T01:46:38;13.93;;;5.60;;
36597;SDS011;22607;49.550;11.940;2024-02-14T01:49:05;12.57;;;4.45;;
36597;SDS011;22607;49.550;11.940;2024-02-14T01:51:32;10.45;;;4.38;;
36597;SDS011;22607;49.550;11.940;2024-02-14T01:54:02;10.88;;;4.63;;
36597;SDS011;22607;49.550;11.940;2024-02-14T01:56:29;12.23;;;4.22;;
36597;SDS011;22607;49.550;11.940;2024-02-14T01:58:57;11.40;;;4.68;;
36597;SDS011;22607;49.550;11.940;2024-02-14T02:01:25;10.80;;;5.07;;
36597;SDS011;22607;49.550;11.940;2024-02-14T02:03:53;10.77;;;3.92;;
36597;SDS011;22607;49.550;11.940;2024-02-14T02:06:23;9.65;;;4.00;;
36597;SDS011;22607;49.550;11.940;2024-02-14T02:08:52;10.93;;;4.35;;
36597;SDS011;22607;49.550;11.940;2024-02-14T02:11:20;8.90;;;3.67;;
36597;SDS011;22607;49.550;11.940;2024-02-14T02:13:46;9.35;;;3.80;;
36597;SDS011;22607;49.550;11.940;2024-02-14T02:16:14;11.90;;;4.28;;
36597;SDS011;22607;49.550;11.940;2024-02-14T02:18:41;10.73;;;5.43;;
36597;SDS011;22607;49.550;11.940;2024-02-14T02:21:09;11.55;;;4.68;;
36597;SDS011;22607;49.550;11.940;2024-02-14T02:23:35;10.23;;;4.13;;
36597;SDS011;22607;49.550;11.940;2024-02-14T02:26:02;9.40;;;4.20;;
36597;SDS011;22607;49.550;11.940;2024-02-14T02:28:29;12.23;;;5.20;;
36597;SDS011;22607;49.550;11.940;2024-02-14T02:30:55;11.93;;;4.75;;
36597;SDS011;22607;49.550;11.940;2024-02-14T02:33:22;11.13;;;4.78;;
36597;SDS011;22607;49.550;11.940;2024-02-14T02:35:50;11.23;;;4.75;;
36597;SDS011;22607;49.550;11.940;2024-02-14T02:38:17;11.63;;;4.28;;
36597;SDS011;22607;49.550;11.940;2024-02-14T02:40:46;12.75;;;5.28;;
36597;SDS011;22607;49.550;11.940;2024-02-14T02:43:12;12.40;;;5.22;;
36597;SDS011;22607;49.550;11.940;2024-02-14T02:45:39;11.10;;;4.72;;
36597;SDS011;22607;49.550;11.940;2024-02-14T02:48:06;14.38;;;4.95;;
36597;SDS011;22607;49.550;11.940;2024-02-14T02:50:33;10.45;;;4.82;;
36597;SDS011;22607;49.550;11.940;2024-02-14T02:53:00;11.65;;;5.25;;
36597;SDS011;22607;49.550;11.940;2024-02-14T02:55:27;11.40;;;4.68;;
36597;SDS011;22607;49.550;11.940;2024-02-14T02:57:53;12.27;;;4.65;;
36597;SDS011;22607;49.550;11.940;2024-02-14T03:00:20;10.95;;;5.28;;
36597;SDS011;22607;49.550;11.940;2024-02-14T03:02:48;10.32;;;4.50;;
36597;SDS011;22607;49.550;11.940;2024-02-14T03:05:15;11.75;;;4.97;;
36597;SDS011;22607;49.550;11.940;2024-02-14T03:07:45;12.52;;;4.72;;
36597;SDS011;22607;49.550;11.940;2024-02-14T03:10:16;9.40;;;4.00;;
36597;SDS011;22607;49.550;11.940;2024-02-14T03:12:46;14.02;;;6.20;;
36597;SDS011;22607;49.550;11.940;2024-02-14T03:15:13;13.85;;;6.05;;
36597;SDS011;22607;49.550;11.940;2024-02-14T03:17:41;11.50;;;5.05;;
36597;SDS011;22607;49.550;11.940;2024-02-14T03:20:09;11.73;;;4.55;;
36597;SDS011;22607;49.550;11.940;2024-02-14T03:22:43;11.45;;;5.00;;
36597;SDS011;22607;49.550;11.940;2024-02-14T03:25:18;12.50;;;5.40;;
36597;SDS011;22607;49.550;11.940;2024-02-14T03:27:47;11.57;;;4.78;;
36597;SDS011;22607;49.550;11.940;2024-02-14T03:30:16;12.75;;;5.63;;
36597;SDS011;22607;49.550;11.940;2024-02-14T03:32:44;13.90;;;5.10;;
36597;SDS011;22607;49.550;11.940;2024-02-14T03:35:12;11.13;;;5.03;;
36597;SDS011;22607;49.550;11.940;2024-02-14T03:37:42;11.57;;;4.25;;
36597;SDS011;22607;49.550;11.940;2024-02-14T03:40:15;12.40;;;4.93;;
36597;SDS011;22607;49.550;11.940;2024-02-14T03:42:42;11.30;;;4.47;;
36597;SDS011;22607;49.550;11.940;2024-02-14T03:45:09;15.57;;;5.63;;
36597;SDS011;22607;49.550;11.940;2024-02-14T03:47:38;13.07;;;5.72;;
36597;SDS011;22607;49.550;11.940;2024-02-14T03:50:08;11.25;;;4.75;;
36597;SDS011;22607;49.550;11.940;2024-02-14T03:52:35;11.73;;;4.22;;
36597;SDS011;22607;49.550;11.940;2024-02-14T03:55:02;12.63;;;5.25;;
36597;SDS011;22607;49.550;11.940;2024-02-14T03:57:31;12.77;;;6.00;;
36597;SDS011;22607;49.550;11.940;2024-02-14T03:59:59;15.05;;;6.82;;
36597;SDS011;22607;49.550;11.940;2024-02-14T04:02:30;14.80;;;6.25;;
36597;SDS011;22607;49.550;11.940;2024-02-14T04:04:58;18.45;;;6.72;;
36597;SDS011;22607;49.550;11.940;2024-02-14T04:07:25;16.80;;;7.50;;
36597;SDS011;22607;49.550;11.940;2024-02-14T04:09:52;11.98;;;5.50;;
36597;SDS011;22607;49.550;11.940;2024-02-14T04:12:19;13.13;;;6.07;;
36597;SDS011;22607;49.550;11.940;2024-02-14T04:14:45;13.45;;;5.20;;
36597;SDS011;22607;49.550;11.940;2024-02-14T04:17:12;12.43;;;5.82;;
36597;SDS011;22607;49.550;11.940;2024-02-14T04:19:41;13.43;;;5.10;;
36597;SDS011;22607;49.550;11.940;2024-02-14T04:22:08;13.38;;;5.15;;
36597;SDS011;22607;49.550;11.940;2024-02-14T04:24:35;11.00;;;4.97;;
36597;SDS011;22607;49.550;11.940;2024-02-14T04:27:02;10.98;;;4.95;;
36597;SDS011;22607;49.550;11.940;2024-02-14T04:29:32;13.30;;;6.03;;
36597;SDS011;22607;49.550;11.940;2024-02-14T04:32:00;15.30;;;6.05;;
36597;SDS011;22607;49.550;11.940;2024-02-14T04:34:27;12.80;;;6.00;;
36597;SDS011;22607;49.550;11.940;2024-02-14T04:36:55;13.82;;;6.13;;
36597;SDS011;22607;49.550;11.940;2024-02-14T04:39:22;12.32;;;5.70;;
36597;SDS011;22607;49.550;11.940;2024-02-14T04:41:49;11.90;;;5.25;;
36597;SDS011;22607;49.550;11.940;2024-02-14T04:44:27;13.48;;;5.63;;
36597;SDS011;22607;49.550;11.940;2024-02-14T04:46:58;13.43;;;6.00;;
36597;SDS011;22607;49.550;11.940;2024-02-14T04:49:25;12.02;;;5.28;;
36597;SDS011;22607;49.550;11.940;2024-02-14T04:51:53;12.10;;;5.38;;
36597;SDS011;22607;49.550;11.940;2024-02-14T04:54:20;15.20;;;6.97;;
36597;SDS011;22607;49.550;11.940;2024-02-14T04:56:47;12.95;;;6.38;;
36597;SDS011;22607;49.550;11.940;2024-02-14T04:59:20;12.38;;;6.00;;
36597;SDS011;22607;49.550;11.940;2024-02-14T05:01:47;15.95;;;7.55;;
36597;SDS011;22607;49.550;11.940;2024-02-14T05:04:14;16.55;;;7.70;;
36597;SDS011;22607;49.550;11.940;2024-02-14T05:06:43;15.85;;;8.38;;
36597;SDS011;22607;49.550;11.940;2024-02-14T05:09:10;17.75;;;8.93;;
36597;SDS011;22607;49.550;11.940;2024-02-14T05:11:37;18.38;;;9.82;;
36597;SDS011;22607;49.550;11.940;2024-02-14T05:14:03;23.83;;;11.20;;
36597;SDS011;22607;49.550;11.940;2024-02-14T05:16:32;16.88;;;9.15;;
36597;SDS011;22607;49.550;11.940;2024-02-14T05:19:00;17.15;;;9.75;;
36597;SDS011;22607;49.550;11.940;2024-02-14T05:21:27;18.58;;;10.60;;
36597;SDS011;22607;49.550;11.940;2024-02-14T05:23:54;20.55;;;9.95;;
36597;SDS011;22607;49.550;11.940;2024-02-14T05:26:20;21.27;;;10.13;;
36597;SDS011;22607;49.550;11.940;2024-02-14T05:28:48;17.20;;;9.98;;
36597;SDS011;22607;49.550;11.940;2024-02-14T05:31:15;15.77;;;8.75;;
36597;SDS011;22607;49.550;11.940;2024-02-14T05:33:43;16.52;;;9.07;;
36597;SDS011;22607;49.550;11.940;2024-02-14T05:36:09;16.20;;;8.70;;
36597;SDS011;22607;49.550;11.940;2024-02-14T05:38:36;14.15;;;7.07;;
36597;SDS011;22607;49.550;11.940;2024-02-14T05:41:03;16.38;;;8.23;;
36597;SDS011;22607;49.550;11.940;2024-02-14T05:43:30;15.63;;;8.10;;
36597;SDS011;22607;49.550;11.940;2024-02-14T05:45:56;16.52;;;8.63;;
36597;SDS011;22607;49.550;11.940;2024-02-14T05:48:24;16.05;;;8.52;;
36597;SDS011;22607;49.550;11.940;2024-02-14T05:50:51;17.80;;;8.88;;
36597;SDS011;22607;49.550;11.940;2024-02-14T05:53:17;17.40;;;8.90;;
36597;SDS011;22607;49.550;11.940;2024-02-14T05:55:44;14.30;;;7.15;;
36597;SDS011;22607;49.550;11.940;2024-02-14T05:58:11;13.48;;;6.55;;
36597;SDS011;22607;49.550;11.940;2024-02-14T06:00:38;15.55;;;7.78;;
36597;SDS011;22607;49.550;11.940;2024-02-14T06:03:05;17.25;;;8.63;;
36597;SDS011;22607;49.550;11.940;2024-02-14T06:05:34;15.25;;;8.02;;
36597;SDS011;22607;49.550;11.940;2024-02-14T06:08:01;20.67;;;9.13;;
36597;SDS011;22607;49.550;11.940;2024-02-14T06:10:29;13.85;;;7.25;;
36597;SDS011;22607;49.550;11.940;2024-02-14T06:12:56;14.68;;;6.97;;
36597;SDS011;22607;49.550;11.940;2024-02-14T06:15:23;15.00;;;7.53;;
36597;SDS011;22607;49.550;11.940;2024-02-14T06:17:50;14.23;;;7.32;;
36597;SDS011;22607;49.550;11.940;2024-02-14T06:20:17;15.80;;;7.10;;
36597;SDS011;22607;49.550;11.940;2024-02-14T06:22:43;16.33;;;8.65;;
36597;SDS011;22607;49.550;11.940;2024-02-14T06:25:22;12.95;;;7.15;;
36597;SDS011;22607;49.550;11.940;2024-02-14T06:27:49;15.88;;;8.10;;
36597;SDS011;22607;49.550;11.940;2024-02-14T06:30:16;18.95;;;8.93;;
36597;SDS011;22607;49.550;11.940;2024-02-14T06:32:44;20.10;;;8.65;;
36597;SDS011;22607;49.550;11.940;2024-02-14T06:35:11;17.50;;;9.60;;
36597;SDS011;22607;49.550;11.940;2024-02-14T06:37:42;15.13;;;7.80;;
36597;SDS011;22607;49.550;11.940;2024-02-14T06:40:21;18.35;;;8.48;;
36597;SDS011;22607;49.550;11.940;2024-02-14T06:42:50;14.90;;;7.95;;
36597;SDS011;22607;49.550;11.940;2024-02-14T06:45:17;16.75;;;8.35;;
36597;SDS011;22607;49.550;11.940;2024-02-14T06:47:43;17.60;;;9.60;;
36597;SDS011;22607;49.550;11.940;2024-02-14T06:50:10;16.50;;;9.38;;
36597;SDS011;22607;49.550;11.940;2024-02-14T06:52:37;14.75;;;7.20;;
36597;SDS011;22607;49.550;11.940;2024-02-14T06:55:03;12.75;;;7.25;;
36597;SDS011;22607;49.550;11.940;2024-02-14T06:57:30;14.43;;;7.68;;
36597;SDS011;22607;49.550;11.940;2024-02-14T06:59:57;15.15;;;7.30;;
36597;SDS011;22607;49.550;11.940;2024-02-14T07:02:26;15.45;;;8.70;;
36597;SDS011;22607;49.550;11.940;2024-02-14T07:04:54;18.75;;;9.93;;
36597;SDS011;22607;49.550;11.940;2024-02-14T07:07:22;19.33;;;10.55;;
36597;SDS011;22607;49.550;11.940;2024-02-14T07:09:51;20.40;;;10.40;;
36597;SDS011;22607;49.550;11.940;2024-02-14T07:12:22;17.17;;;9.65;;
36597;SDS011;22607;49.550;11.940;2024-02-14T07:14:51;19.45;;;10.73;;
36597;SDS011;22607;49.550;11.940;2024-02-14T07:17:17;23.77;;;11.18;;
36597;SDS011;22607;49.550;11.940;2024-02-14T07:19:48;20.05;;;10.98;;
36597;SDS011;22607;49.550;11.940;2024-02-14T07:22:16;34.45;;;16.45;;
36597;SDS011;22607;49.550;11.940;2024-02-14T07:24:45;21.35;;;11.70;;
36597;SDS011;22607;49.550;11.940;2024-02-14T07:27:13;21.40;;;10.90;;
36597;SDS011;22607;49.550;11.940;2024-02-14T07:29:41;19.38;;;10.95;;
36597;SDS011;22607;49.550;11.940;2024-02-14T07:32:08;18.60;;;10.48;;
36597;SDS011;22607;49.550;11.940;2024-02-14T07:34:38;19.45;;;10.70;;
36597;SDS011;22607;49.550;11.940;2024-02-14T07:37:05;19.88;;;9.80;;
36597;SDS011;22607;49.550;11.940;2024-02-14T07:39:33;16.92;;;9.45;;
36597;SDS011;22607;49.550;11.940;2024-02-14T07:42:01;18.63;;;9.57;;
36597;SDS011;22607;49.550;11.940;2024-02-14T07:44:29;20.52;;;12.15;;
36597;SDS011;22607;49.550;11.940;2024-02-14T07:46:56;18.20;;;9.88;;
36597;SDS011;22607;49.550;11.940;2024-02-14T07:49:26;20.42;;;10.82;;
36597;SDS011;22607;49.550;11.940;2024-02-14T07:51:53;25.83;;;12.45;;
36597;SDS011;22607;49.550;11.940;2024-02-14T07:54:19;20.73;;;10.73;;
36597;SDS011;22607;49.550;11.940;2024-02-14T07:56:46;18.58;;;10.25;;
36597;SDS011;22607;49.550;11.940;2024-02-14T07:59:13;20.08;;;11.52;;
36597;SDS011;22607;49.550;11.940;2024-02-14T08:01:42;22.42;;;11.07;;
36597;SDS011;22607;49.550;11.940;2024-02-14T08:04:10;19.98;;;10.82;;
36597;SDS011;22607;49.550;11.940;2024-02-14T08:06:37;19.75;;;11.38;;
36597;SDS011;22607;49.550;11.940;2024-02-14T08:09:03;19.23;;;10.77;;
36597;SDS011;22607;49.550;11.940;2024-02-14T08:11:33;22.63;;;12.40;;
36597;SDS011;22607;49.550;11.940;2024-02-14T08:14:00;22.05;;;11.88;;
36597;SDS011;22607;49.550;11.940;2024-02-14T08:16:26;17.88;;;9.95;;
36597;SDS011;22607;49.550;11.940;2024-02-14T08:18:53;17.67;;;11.35;;
36597;SDS011;22607;49.550;11.940;2024-02-14T08:21:26;18.75;;;10.60;;
36597;SDS011;22607;49.550;11.940;2024-02-14T08:23:58;14.85;;;8.23;;
36597;SDS011;22607;49.550;11.940;2024-02-14T08:26:27;16.35;;;8.00;;
36597;SDS011;22607;49.550;11.940;2024-02-14T08:28:54;16.25;;;7.65;;
36597;SDS011;22607;49.550;11.940;2024-02-14T08:31:22;14.57;;;7.60;;
36597;SDS011;22607;49.550;11.940;2024-02-14T08:33:49;15.45;;;8.98;;
36597;SDS011;22607;49.550;11.940;2024-02-14T08:36:16;17.50;;;9.75;;
36597;SDS011;22607;49.550;11.940;2024-02-14T08:38:45;17.75;;;9.88;;
36597;SDS011;22607;49.550;11.940;2024-02-14T08:41:12;20.83;;;11.10;;
36597;SDS011;22607;49.550;11.940;2024-02-14T08:43:39;20.08;;;11.32;;
36597;SDS011;22607;49.550;11.940;2024-02-14T08:46:11;15.85;;;8.38;;
36597;SDS011;22607;49.550;11.940;2024-02-14T08:48:38;21.27;;;10.85;;
36597;SDS011;22607;49.550;11.940;2024-02-14T08:51:14;17.13;;;9.27;;
36597;SDS011;22607;49.550;11.940;2024-02-14T08:53:42;16.20;;;9.52;;
36597;SDS011;22607;49.550;11.940;2024-02-14T08:56:12;15.73;;;7.80;;
36597;SDS011;22607;49.550;11.940;2024-02-14T08:58:39;14.07;;;7.72;;
36597;SDS011;22607;49.550;11.940;2024-02-14T09:01:06;14.23;;;7.63;;
36597;SDS011;22607;49.550;11.940;2024-02-14T09:03:41;14.70;;;8.23;;
36597;SDS011;22607;49.550;11.940;2024-02-14T09:06:16;14.57;;;8.18;;
36597;SDS011;22607;49.550;11.940;2024-02-14T09:08:44;15.32;;;8.18;;
36597;SDS011;22607;49.550;11.940;2024-02-14T09:11:11;16.80;;;9.07;;
36597;SDS011;22607;49.550;11.940;2024-02-14T09:13:39;12.88;;;6.85;;
36597;SDS011;22607;49.550;11.940;2024-02-14T09:16:09;13.82;;;7.32;;
36597;SDS011;22607;49.550;11.940;2024-02-14T09:18:37;14.30;;;7.63;;
36597;SDS011;22607;49.550;11.940;2024-02-14T09:21:07;14.35;;;6.50;;
36597;SDS011;22607;49.550;11.940;2024-02-14T09:23:36;15.23;;;7.45;;
36597;SDS011;22607;49.550;11.940;2024-02-14T09:26:07;19.00;;;9.53;;
36597;SDS011;22607;49.550;11.940;2024-02-14T09:28:33;15.60;;;7.55;;
36597;SDS011;22607;49.550;11.940;2024-02-14T09:31:04;13.68;;;6.53;;
36597;SDS011;22607;49.550;11.940;2024-02-14T09:33:31;14.35;;;6.10;;
36597;SDS011;22607;49.550;11.940;2024-02-14T09:35:58;12.20;;;6.45;;
36597;SDS011;22607;49.550;11.940;2024-02-14T09:38:24;12.93;;;6.40;;
36597;SDS011;22607;49.550;11.940;2024-02-14T09:40:53;12.48;;;6.78;;
36597;SDS011;22607;49.550;11.940;2024-02-14T09:43:43;13.73;;;5.60;;
36597;SDS011;22607;49.550;11.940;2024-02-14T09:46:11;11.43;;;5.35;;
36597;SDS011;22607;49.550;11.940;2024-02-14T09:48:43;11.23;;;5.18;;
36597;SDS011;22607;49.550;11.940;2024-02-14T09:53:39;12.52;;;5.70;;
36597;SDS011;22607;49.550;11.940;2024-02-14T09:56:11;14.23;;;5.85;;
36597;SDS011;22607;49.550;11.940;2024-02-14T09:58:40;12.20;;;5.63;;
36597;SDS011;22607;49.550;11.940;2024-02-14T10:01:07;9.82;;;4.55;;
36597;SDS011;22607;49.550;11.940;2024-02-14T10:03:34;10.63;;;4.82;;
36597;SDS011;22607;49.550;11.940;2024-02-14T10:06:02;13.27;;;6.00;;
36597;SDS011;22607;49.550;11.940;2024-02-14T10:08:31;11.38;;;5.25;;
36597;SDS011;22607;49.550;11.940;2024-02-14T10:10:58;15.40;;;7.05;;
36597;SDS011;22607;49.550;11.940;2024-02-14T10:13:30;13.75;;;5.03;;
36597;SDS011;22607;49.550;11.940;2024-02-14T10:15:58;14.35;;;6.80;;
36597;SDS011;22607;49.550;11.940;2024-02-14T10:18:25;11.25;;;5.10;;
36597;SDS011;22607;49.550;11.940;2024-02-14T10:20:54;14.27;;;7.13;;
36597;SDS011;22607;49.550;11.940;2024-02-14T10:23:24;11.93;;;5.90;;
36597;SDS011;22607;49.550;11.940;2024-02-14T10:25:52;14.35;;;7.18;;
36597;SDS011;22607;49.550;11.940;2024-02-14T10:28:20;12.05;;;5.65;;
36597;SDS011;22607;49.550;11.940;2024-02-14T10:30:58;14.77;;;6.78;;
36597;SDS011;22607;49.550;11.940;2024-02-14T10:35:59;14.27;;;6.72;;
36597;SDS011;22607;49.550;11.940;2024-02-14T10:38:31;11.93;;;6.03;;
36597;SDS011;22607;49.550;11.940;2024-02-14T10:41:02;12.45;;;6.05;;
36597;SDS011;22607;49.550;11.940;2024-02-14T10:43:34;10.93;;;5.32;;
36597;SDS011;22607;49.550;11.940;2024-02-14T10:46:05;11.60;;;5.55;;
36597;SDS011;22607;49.550;11.940;2024-02-14T10:48:37;16.70;;;6.47;;
36597;SDS011;22607;49.550;11.940;2024-02-14T10:51:05;11.82;;;5.00;;
36597;SDS011;22607;49.550;11.940;2024-02-14T10:53:34;12.18;;;5.10;;
36597;SDS011;22607;49.550;11.940;2024-02-14T10:56:06;12.82;;;4.82;;
36597;SDS011;22607;49.550;11.940;2024-02-14T10:58:34;11.85;;;5.75;;
36597;SDS011;22607;49.550;11.940;2024-02-14T11:01:01;11.27;;;5.60;;
36597;SDS011;22607;49.550;11.940;2024-02-14T11:03:29;11.60;;;5.10;;
36597;SDS011;22607;49.550;11.940;2024-02-14T11:06:01;11.20;;;5.20;;
36597;SDS011;22607;49.550;11.940;2024-02-14T11:08:31;11.45;;;4.20;;
36597;SDS011;22607;49.550;11.940;2024-02-14T11:10:59;12.65;;;5.57;;
36597;SDS011;22607;49.550;11.940;2024-02-14T11:13:27;10.35;;;3.78;;
36597;SDS011;22607;49.550;11.940;2024-02-14T11:15:59;9.90;;;4.05;;
36597;SDS011;22607;49.550;11.940;2024-02-14T11:18:27;8.93;;;2.92;;
36597;SDS011;22607;49.550;11.940;2024-02-14T11:21:03;8.43;;;3.00;;
36597;SDS011;22607;49.550;11.940;2024-02-14T11:23:34;7.95;;;2.40;;
36597;SDS011;22607;49.550;11.940;2024-02-14T11:26:01;9.30;;;3.95;;
36597;SDS011;22607;49.550;11.940;2024-02-14T11:28:29;8.18;;;2.50;;
36597;SDS011;22607;49.550;11.940;2024-02-14T11:31:02;8.77;;;2.35;;
36597;SDS011;22607;49.550;11.940;2024-02-14T11:33:33;8.00;;;2.50;;
36597;SDS011;22607;49.550;11.940;2024-02-14T11:36:00;10.95;;;4.07;;
36597;SDS011;22607;49.550;11.940;2024-02-14T11:38:37;10.68;;;4.63;;
36597;SDS011;22607;49.550;11.940;2024-02-14T11:41:10;9.68;;;4.32;;
36597;SDS011;22607;49.550;11.940;2024-02-14T11:43:37;11.10;;;4.25;;
36597;SDS011;22607;49.550;11.940;2024-02-14T11:46:06;10.32;;;4.00;;
36597;SDS011;22607;49.550;11.940;2024-02-14T11:48:33;8.07;;;2.45;;
36597;SDS011;22607;49.550;11.940;2024-02-14T11:51:00;7.95;;;2.33;;
36597;SDS011;22607;49.550;11.940;2024-02-14T11:53:28;8.85;;;2.80;;
36597;SDS011;22607;49.550;11.940;2024-02-14T11:55:55;10.30;;;3.10;;
36597;SDS011;22607;49.550;11.940;2024-02-14T11:58:23;8.70;;;2.75;;
36597;SDS011;22607;49.550;11.940;2024-02-14T12:00:50;9.57;;;3.20;;
36597;SDS011;22607;49.550;11.940;2024-02-14T12:03:18;8.10;;;2.80;;
36597;SDS011;22607;49.550;11.940;2024-02-14T12:05:48;7.88;;;2.47;;
36597;SDS011;22607;49.550;11.940;2024-02-14T12:08:17;9.05;;;3.08;;
36597;SDS011;22607;49.550;11.940;2024-02-14T12:10:47;7.25;;;2.58;;
36597;SDS011;22607;49.550;11.940;2024-02-14T12:13:22;10.95;;;2.60;;
36597;SDS011;22607;49.550;11.940;2024-02-14T12:15:51;9.27;;;3.17;;
36597;SDS011;22607;49.550;11.940;2024-02-14T12:18:19;8.50;;;3.25;;
36597;SDS011;22607;49.550;11.940;2024-02-14T12:20:48;7.82;;;2.60;;
36597;SDS011;22607;49.550;11.940;2024-02-14T12:23:21;9.35;;;3.05;;
36597;SDS011;22607;49.550;11.940;2024-02-14T12:25:50;8.88;;;2.90;;
36597;SDS011;22607;49.550;11.940;2024-02-14T12:28:19;8.27;;;2.80;;
36597;SDS011;22607;49.550;11.940;2024-02-14T12:30:47;8.52;;;2.22;;
36597;SDS011;22607;49.550;11.940;2024-02-14T12:33:16;8.95;;;2.75;;
36597;SDS011;22607;49.550;11.940;2024-02-14T12:35:45;8.70;;;3.00;;
36597;SDS011;22607;49.550;11.940;2024-02-14T12:38:14;8.05;;;2.90;;
36597;SDS011;22607;49.550;11.940;2024-02-14T12:40:41;7.57;;;2.45;;
36597;SDS011;22607;49.550;11.940;2024-02-14T12:43:09;9.27;;;2.90;;
36597;SDS011;22607;49.550;11.940;2024-02-14T12:45:37;7.78;;;2.53;;
36597;SDS011;22607;49.550;11.940;2024-02-14T12:48:05;7.68;;;2.40;;
36597;SDS011;22607;49.550;11.940;2024-02-14T12:50:32;8.55;;;2.20;;
36597;SDS011;22607;49.550;11.940;2024-02-14T12:53:00;10.05;;;2.50;;
36597;SDS011;22607;49.550;11.940;2024-02-14T12:55:27;8.35;;;2.80;;
36597;SDS011;22607;49.550;11.940;2024-02-14T12:57:55;9.13;;;2.40;;
36597;SDS011;22607;49.550;11.940;2024-02-14T13:00:23;10.60;;;2.40;;
36597;SDS011;22607;49.550;11.940;2024-02-14T13:02:50;7.47;;;2.40;;
36597;SDS011;22607;49.550;11.940;2024-02-14T13:05:17;6.80;;;2.25;;
36597;SDS011;22607;49.550;11.940;2024-02-14T13:07:44;9.35;;;2.30;;
36597;SDS011;22607;49.550;11.940;2024-02-14T13:10:13;9.73;;;2.67;;
36597;SDS011;22607;49.550;11.940;2024-02-14T13:12:39;7.75;;;2.22;;
36597;SDS011;22607;49.550;11.940;2024-02-14T13:15:06;7.90;;;2.65;;
36597;SDS011;22607;49.550;11.940;2024-02-14T13:17:33;9.95;;;2.40;;
36597;SDS011;22607;49.550;11.940;2024-02-14T13:20:01;8.25;;;2.00;;
36597;SDS011;22607;49.550;11.940;2024-02-14T13:22:28;8.48;;;2.38;;
36597;SDS011;22607;49.550;11.940;2024-02-14T13:24:55;7.50;;;2.10;;
36597;SDS011;22607;49.550;11.940;2024-02-14T13:27:26;7.45;;;2.17;;
36597;SDS011;22607;49.550;11.940;2024-02-14T13:29:53;7.85;;;2.28;;
36597;SDS011;22607;49.550;11.940;2024-02-14T13:32:20;8.05;;;2.50;;
36597;SDS011;22607;49.550;11.940;2024-02-14T13:34:47;10.43;;;2.67;;
36597;SDS011;22607;49.550;11.940;2024-02-14T13:37:14;8.57;;;2.88;;
36597;SDS011;22607;49.550;11.940;2024-02-14T13:39:42;8.45;;;2.60;;
36597;SDS011;22607;49.550;11.940;2024-02-14T13:42:10;7.30;;;2.45;;
36597;SDS011;22607;49.550;11.940;2024-02-14T13:44:37;7.53;;;2.47;;
36597;SDS011;22607;49.550;11.940;2024-02-14T13:47:04;10.90;;;2.72;;
36597;SDS011;22607;49.550;11.940;2024-02-14T13:49:31;9.77;;;2.72;;
36597;SDS011;22607;49.550;11.940;2024-02-14T13:52:01;9.95;;;3.13;;
36597;SDS011;22607;49.550;11.940;2024-02-14T13:57:15;8.88;;;2.83;;
36597;SDS011;22607;49.550;11.940;2024-02-14T13:59:46;10.35;;;3.05;;
36597;SDS011;22607;49.550;11.940;2024-02-14T14:02:14;9.15;;;2.60;;
36597;SDS011;22607;49.550;11.940;2024-02-14T14:04:40;9.32;;;3.03;;
36597;SDS011;22607;49.550;11.940;2024-02-14T14:07:08;10.00;;;3.10;;
36597;SDS011;22607;49.550;11.940;2024-02-14T14:09:39;9.15;;;3.13;;
36597;SDS011;22607;49.550;11.940;2024-02-14T14:12:12;8.55;;;2.80;;
36597;SDS011;22607;49.550;11.940;2024-02-14T14:14:39;7.80;;;2.83;;
36597;SDS011;22607;49.550;11.940;2024-02-14T14:17:06;7.80;;;2.25;;
36597;SDS011;22607;49.550;11.940;2024-02-14T14:19:34;8.23;;;2.70;;
36597;SDS011;22607;49.550;11.940;2024-02-14T14:22:10;8.40;;;2.80;;
36597;SDS011;22607;49.550;11.940;2024-02-14T14:24:38;9.02;;;2.60;;
36597;SDS011;22607;49.550;11.940;2024-02-14T14:27:05;8.52;;;2.78;;
36597;SDS011;22607;49.550;11.940;2024-02-14T14:29:35;11.90;;;3.67;;
36597;SDS011;22607;49.550;11.940;2024-02-14T14:32:03;10.82;;;4.10;;
36597;SDS011;22607;49.550;11.940;2024-02-14T14:34:30;11.68;;;3.17;;
36597;SDS011;22607;49.550;11.940;2024-02-14T14:36:58;10.57;;;4.07;;